Woomera Airfield

Airport
ICAO code: 
YPWR
IATA Code: 
UMR
Summary
ICAO Region: 
APAC
Territory: 
Location: 
Woomera, South Australia
Serving: 
Woomera
Elevation: 
548 ft
Coordinates: 
Aerial View: 
31° 8' 39.001" S, 136° 49' 0.998" E
Metar
Observation
YPWR 241702Z AUTO 22005KT 9999 // BKN007 23/22 Q1003
Station
Woomera Aerodrome
Date/Time
2022-01-24 17:02:00
Wind direction
220°
Wind speed
05 kts
Lowest cloud amount
broken clouds
Temperature
23°C
Dew point
22°C
Humidity
94%
QNH
1003 hPa
Weather condition
n/a

Runways

Designator Length Width Surface Rops
12/30 1614 30 GVL No/No
18/36 2372 45 ASP No/No
Airport map: 
Aerial View: 

SKYbrary Partners:

Safety knowledge contributed by: